sensor_id;sensor_type;location;lat;lon;timestamp;pressure;altitude;pressure_sealevel;temperature;humidity
53960;BME280;39866;48.638;-2.020;2023-07-31T00:01:52;101404.72;;;22.69;58.75
53960;BME280;39866;48.638;-2.020;2023-07-31T00:04:17;101403.59;;;22.86;58.80
53960;BME280;39866;48.638;-2.020;2023-07-31T00:06:43;101398.78;;;22.90;58.95
53960;BME280;39866;48.638;-2.020;2023-07-31T00:09:08;101396.72;;;22.81;58.76
53960;BME280;39866;48.638;-2.020;2023-07-31T00:11:33;101384.34;;;22.89;58.99
53960;BME280;39866;48.638;-2.020;2023-07-31T00:13:59;101378.41;;;22.97;58.57
53960;BME280;39866;48.638;-2.020;2023-07-31T00:16:24;101381.91;;;22.99;58.80
53960;BME280;39866;48.638;-2.020;2023-07-31T00:18:49;101372.56;;;22.90;59.09
53960;BME280;39866;48.638;-2.020;2023-07-31T00:21:15;101367.13;;;22.90;58.61
53960;BME280;39866;48.638;-2.020;2023-07-31T00:23:40;101364.09;;;22.95;58.56
53960;BME280;39866;48.638;-2.020;2023-07-31T00:26:05;101374.59;;;22.87;58.61
53960;BME280;39866;48.638;-2.020;2023-07-31T00:28:31;101363.84;;;22.98;58.40
53960;BME280;39866;48.638;-2.020;2023-07-31T00:30:56;101377.53;;;22.96;58.64
53960;BME280;39866;48.638;-2.020;2023-07-31T00:33:21;101370.72;;;23.04;58.57
53960;BME280;39866;48.638;-2.020;2023-07-31T00:35:48;101363.97;;;22.96;58.86
53960;BME280;39866;48.638;-2.020;2023-07-31T00:38:13;101356.34;;;23.02;58.97
53960;BME280;39866;48.638;-2.020;2023-07-31T00:40:39;101358.75;;;22.93;58.76
53960;BME280;39866;48.638;-2.020;2023-07-31T00:43:04;101357.69;;;22.96;58.91
53960;BME280;39866;48.638;-2.020;2023-07-31T00:45:30;101362.75;;;22.88;59.24
53960;BME280;39866;48.638;-2.020;2023-07-31T00:47:56;101359.31;;;22.98;59.12
53960;BME280;39866;48.638;-2.020;2023-07-31T00:50:23;101362.91;;;22.99;58.84
53960;BME280;39866;48.638;-2.020;2023-07-31T00:52:49;101362.66;;;23.02;58.83
53960;BME280;39866;48.638;-2.020;2023-07-31T00:55:14;101367.34;;;23.00;58.83
53960;BME280;39866;48.638;-2.020;2023-07-31T00:57:41;101363.22;;;23.07;58.50
53960;BME280;39866;48.638;-2.020;2023-07-31T01:00:07;101349.19;;;23.13;58.49
53960;BME280;39866;48.638;-2.020;2023-07-31T01:02:32;101357.78;;;23.07;58.28
53960;BME280;39866;48.638;-2.020;2023-07-31T01:04:58;101348.88;;;22.92;58.54
53960;BME280;39866;48.638;-2.020;2023-07-31T01:07:34;101348.66;;;22.95;58.59
53960;BME280;39866;48.638;-2.020;2023-07-31T01:10:09;101349.75;;;22.93;58.96
53960;BME280;39866;48.638;-2.020;2023-07-31T01:12:36;101348.53;;;22.97;59.00
53960;BME280;39866;48.638;-2.020;2023-07-31T01:15:06;101344.94;;;22.84;59.11
53960;BME280;39866;48.638;-2.020;2023-07-31T01:17:36;101348.00;;;22.92;59.11
53960;BME280;39866;48.638;-2.020;2023-07-31T01:20:05;101329.66;;;22.95;58.94
53960;BME280;39866;48.638;-2.020;2023-07-31T01:22:59;101322.16;;;22.99;59.07
53960;BME280;39866;48.638;-2.020;2023-07-31T01:28:20;101316.19;;;22.94;58.74
53960;BME280;39866;48.638;-2.020;2023-07-31T01:30:48;101311.06;;;23.02;58.68
53960;BME280;39866;48.638;-2.020;2023-07-31T01:33:15;101306.94;;;22.96;58.82
53960;BME280;39866;48.638;-2.020;2023-07-31T01:35:44;101308.31;;;22.89;59.14
53960;BME280;39866;48.638;-2.020;2023-07-31T01:38:10;101308.78;;;22.83;58.64
53960;BME280;39866;48.638;-2.020;2023-07-31T01:40:36;101318.31;;;22.89;59.05
53960;BME280;39866;48.638;-2.020;2023-07-31T01:43:01;101310.19;;;22.89;59.08
53960;BME280;39866;48.638;-2.020;2023-07-31T01:45:27;101296.72;;;22.74;59.11
53960;BME280;39866;48.638;-2.020;2023-07-31T01:47:52;101287.16;;;22.82;59.32
53960;BME280;39866;48.638;-2.020;2023-07-31T01:50:17;101286.09;;;22.71;58.82
53960;BME280;39866;48.638;-2.020;2023-07-31T01:52:43;101274.16;;;22.87;59.06
53960;BME280;39866;48.638;-2.020;2023-07-31T01:55:08;101277.59;;;22.89;58.86
53960;BME280;39866;48.638;-2.020;2023-07-31T01:57:36;101259.47;;;22.89;58.75
53960;BME280;39866;48.638;-2.020;2023-07-31T02:00:01;101270.25;;;22.91;58.63
53960;BME280;39866;48.638;-2.020;2023-07-31T02:02:27;101265.34;;;22.83;59.03
53960;BME280;39866;48.638;-2.020;2023-07-31T02:04:52;101264.84;;;22.91;58.57
53960;BME280;39866;48.638;-2.020;2023-07-31T02:07:18;101247.84;;;22.87;58.87
53960;BME280;39866;48.638;-2.020;2023-07-31T02:09:43;101255.88;;;23.02;58.75
53960;BME280;39866;48.638;-2.020;2023-07-31T02:12:08;101248.06;;;22.97;58.88
53960;BME280;39866;48.638;-2.020;2023-07-31T02:14:34;101248.72;;;23.01;58.51
53960;BME280;39866;48.638;-2.020;2023-07-31T02:16:59;101232.00;;;22.94;58.69
53960;BME280;39866;48.638;-2.020;2023-07-31T02:19:25;101228.94;;;22.86;58.77
53960;BME280;39866;48.638;-2.020;2023-07-31T02:21:50;101227.00;;;22.88;58.66
53960;BME280;39866;48.638;-2.020;2023-07-31T02:24:16;101227.69;;;22.91;58.77
53960;BME280;39866;48.638;-2.020;2023-07-31T02:26:41;101233.50;;;22.85;58.85
53960;BME280;39866;48.638;-2.020;2023-07-31T02:29:07;101234.06;;;22.78;59.40
53960;BME280;39866;48.638;-2.020;2023-07-31T02:31:33;101230.69;;;22.87;59.11
53960;BME280;39866;48.638;-2.020;2023-07-31T02:33:58;101220.72;;;22.87;59.26
53960;BME280;39866;48.638;-2.020;2023-07-31T02:36:23;101225.97;;;22.90;59.34
53960;BME280;39866;48.638;-2.020;2023-07-31T02:38:49;101227.88;;;22.88;59.24
53960;BME280;39866;48.638;-2.020;2023-07-31T02:41:14;101216.56;;;22.82;59.38
53960;BME280;39866;48.638;-2.020;2023-07-31T02:43:39;101216.69;;;22.93;59.21
53960;BME280;39866;48.638;-2.020;2023-07-31T02:46:05;101198.66;;;23.05;58.71
53960;BME280;39866;48.638;-2.020;2023-07-31T02:48:30;101190.72;;;22.89;58.42
53960;BME280;39866;48.638;-2.020;2023-07-31T02:50:55;101193.25;;;22.79;59.23
53960;BME280;39866;48.638;-2.020;2023-07-31T02:53:21;101198.56;;;22.81;59.60
53960;BME280;39866;48.638;-2.020;2023-07-31T02:55:48;101199.22;;;22.71;59.46
53960;BME280;39866;48.638;-2.020;2023-07-31T02:58:13;101187.81;;;22.79;59.86
53960;BME280;39866;48.638;-2.020;2023-07-31T03:00:45;101189.88;;;22.75;59.50
53960;BME280;39866;48.638;-2.020;2023-07-31T03:03:10;101187.53;;;22.58;60.15
53960;BME280;39866;48.638;-2.020;2023-07-31T03:05:36;101189.88;;;22.75;59.81
53960;BME280;39866;48.638;-2.020;2023-07-31T03:08:01;101187.34;;;22.85;59.74
53960;BME280;39866;48.638;-2.020;2023-07-31T03:10:27;101182.78;;;22.86;59.76
53960;BME280;39866;48.638;-2.020;2023-07-31T03:12:52;101175.22;;;22.91;59.85
53960;BME280;39866;48.638;-2.020;2023-07-31T03:15:17;101172.06;;;22.97;59.91
53960;BME280;39866;48.638;-2.020;2023-07-31T03:17:43;101163.78;;;22.86;59.95
53960;BME280;39866;48.638;-2.020;2023-07-31T03:20:08;101171.41;;;22.93;59.95
53960;BME280;39866;48.638;-2.020;2023-07-31T03:22:34;101170.31;;;22.96;60.12
53960;BME280;39866;48.638;-2.020;2023-07-31T03:25:01;101174.91;;;22.95;60.25
53960;BME280;39866;48.638;-2.020;2023-07-31T03:27:26;101174.03;;;22.95;59.91
53960;BME280;39866;48.638;-2.020;2023-07-31T03:29:51;101171.06;;;22.98;59.94
53960;BME280;39866;48.638;-2.020;2023-07-31T03:32:17;101163.56;;;22.89;60.20
53960;BME280;39866;48.638;-2.020;2023-07-31T03:34:42;101168.13;;;23.01;60.00
53960;BME280;39866;48.638;-2.020;2023-07-31T03:37:07;101167.28;;;22.88;60.47
53960;BME280;39866;48.638;-2.020;2023-07-31T03:39:34;101172.53;;;22.91;60.49
53960;BME280;39866;48.638;-2.020;2023-07-31T03:42:00;101169.88;;;22.89;60.24
53960;BME280;39866;48.638;-2.020;2023-07-31T03:44:25;101167.75;;;22.94;60.20
53960;BME280;39866;48.638;-2.020;2023-07-31T03:46:50;101167.53;;;22.72;60.62
53960;BME280;39866;48.638;-2.020;2023-07-31T03:49:16;101147.84;;;22.81;60.58
53960;BME280;39866;48.638;-2.020;2023-07-31T03:51:41;101140.34;;;22.85;61.06
53960;BME280;39866;48.638;-2.020;2023-07-31T03:54:07;101136.56;;;22.87;60.67
53960;BME280;39866;48.638;-2.020;2023-07-31T03:56:33;101126.72;;;22.61;61.71
53960;BME280;39866;48.638;-2.020;2023-07-31T03:58:58;101124.25;;;22.45;62.06
53960;BME280;39866;48.638;-2.020;2023-07-31T04:01:23;101132.19;;;22.48;62.70
53960;BME280;39866;48.638;-2.020;2023-07-31T04:03:49;101128.84;;;22.32;63.02
53960;BME280;39866;48.638;-2.020;2023-07-31T04:06:14;101112.13;;;22.38;63.05
53960;BME280;39866;48.638;-2.020;2023-07-31T04:08:43;101123.00;;;22.38;63.04
53960;BME280;39866;48.638;-2.020;2023-07-31T04:11:09;101110.69;;;22.45;62.86
53960;BME280;39866;48.638;-2.020;2023-07-31T04:13:34;101119.28;;;22.39;63.37
53960;BME280;39866;48.638;-2.020;2023-07-31T04:15:59;101124.16;;;22.46;63.48
53960;BME280;39866;48.638;-2.020;2023-07-31T04:18:25;101118.53;;;22.49;63.41
53960;BME280;39866;48.638;-2.020;2023-07-31T04:20:51;101116.56;;;22.52;63.25
53960;BME280;39866;48.638;-2.020;2023-07-31T04:23:16;101124.03;;;22.48;63.53
53960;BME280;39866;48.638;-2.020;2023-07-31T04:25:42;101114.16;;;22.60;63.05
53960;BME280;39866;48.638;-2.020;2023-07-31T04:28:07;101106.97;;;22.71;62.75
53960;BME280;39866;48.638;-2.020;2023-07-31T04:30:33;101106.31;;;22.68;62.86
53960;BME280;39866;48.638;-2.020;2023-07-31T04:32:58;101099.03;;;22.68;62.97
53960;BME280;39866;48.638;-2.020;2023-07-31T04:35:24;101103.38;;;22.71;63.25
53960;BME280;39866;48.638;-2.020;2023-07-31T04:37:49;101085.69;;;22.65;63.22
53960;BME280;39866;48.638;-2.020;2023-07-31T04:40:15;101080.16;;;22.67;63.13
53960;BME280;39866;48.638;-2.020;2023-07-31T04:42:41;101080.69;;;22.72;63.33
53960;BME280;39866;48.638;-2.020;2023-07-31T04:45:08;101087.66;;;22.63;63.58
53960;BME280;39866;48.638;-2.020;2023-07-31T04:47:33;101098.94;;;22.70;63.68
53960;BME280;39866;48.638;-2.020;2023-07-31T04:49:58;101094.19;;;22.48;64.27
53960;BME280;39866;48.638;-2.020;2023-07-31T04:52:24;101092.00;;;22.53;64.46
53960;BME280;39866;48.638;-2.020;2023-07-31T04:54:49;101068.56;;;22.52;64.55
53960;BME280;39866;48.638;-2.020;2023-07-31T04:57:14;101068.88;;;22.60;64.72
53960;BME280;39866;48.638;-2.020;2023-07-31T04:59:40;101085.88;;;22.75;63.82
53960;BME280;39866;48.638;-2.020;2023-07-31T05:02:07;101075.03;;;22.75;63.77
53960;BME280;39866;48.638;-2.020;2023-07-31T05:04:33;101083.25;;;22.86;63.81
53960;BME280;39866;48.638;-2.020;2023-07-31T05:06:58;101085.19;;;22.84;63.93
53960;BME280;39866;48.638;-2.020;2023-07-31T05:09:23;101079.09;;;22.93;63.82
53960;BME280;39866;48.638;-2.020;2023-07-31T05:11:49;101064.34;;;22.85;63.97
53960;BME280;39866;48.638;-2.020;2023-07-31T05:14:14;101076.50;;;22.92;63.85
53960;BME280;39866;48.638;-2.020;2023-07-31T05:16:40;101072.06;;;22.91;64.03
53960;BME280;39866;48.638;-2.020;2023-07-31T05:19:06;101071.72;;;22.95;63.86
53960;BME280;39866;48.638;-2.020;2023-07-31T05:21:31;101066.38;;;22.94;63.96
53960;BME280;39866;48.638;-2.020;2023-07-31T05:23:57;101052.94;;;22.92;63.94
53960;BME280;39866;48.638;-2.020;2023-07-31T05:26:22;101046.56;;;22.81;64.46
53960;BME280;39866;48.638;-2.020;2023-07-31T05:28:47;101047.16;;;22.97;63.82
53960;BME280;39866;48.638;-2.020;2023-07-31T05:31:13;101051.59;;;22.98;63.47
53960;BME280;39866;48.638;-2.020;2023-07-31T05:33:38;101051.50;;;22.99;63.26
53960;BME280;39866;48.638;-2.020;2023-07-31T05:36:04;101051.50;;;22.99;63.79
53960;BME280;39866;48.638;-2.020;2023-07-31T05:38:29;101043.22;;;23.01;63.62
53960;BME280;39866;48.638;-2.020;2023-07-31T05:40:55;101038.78;;;23.00;63.78
53960;BME280;39866;48.638;-2.020;2023-07-31T05:43:20;101032.38;;;23.01;63.66
53960;BME280;39866;48.638;-2.020;2023-07-31T05:45:46;101050.16;;;23.05;63.57
53960;BME280;39866;48.638;-2.020;2023-07-31T05:48:11;101040.50;;;23.01;63.71
53960;BME280;39866;48.638;-2.020;2023-07-31T05:50:36;101041.72;;;22.97;64.30
53960;BME280;39866;48.638;-2.020;2023-07-31T05:53:05;101047.66;;;23.02;64.08
53960;BME280;39866;48.638;-2.020;2023-07-31T05:55:31;101042.06;;;23.16;63.59
53960;BME280;39866;48.638;-2.020;2023-07-31T05:57:56;101032.38;;;23.01;63.82
53960;BME280;39866;48.638;-2.020;2023-07-31T06:00:22;101039.47;;;23.15;63.53
53960;BME280;39866;48.638;-2.020;2023-07-31T06:02:48;101048.34;;;23.17;63.47
53960;BME280;39866;48.638;-2.020;2023-07-31T06:05:13;101043.13;;;23.03;64.10
53960;BME280;39866;48.638;-2.020;2023-07-31T06:07:38;101038.84;;;23.11;63.67
53960;BME280;39866;48.638;-2.020;2023-07-31T06:10:04;101029.69;;;23.12;63.90
53960;BME280;39866;48.638;-2.020;2023-07-31T06:12:34;101028.97;;;23.21;63.71
53960;BME280;39866;48.638;-2.020;2023-07-31T06:15:00;101031.91;;;23.07;63.86
53960;BME280;39866;48.638;-2.020;2023-07-31T06:17:26;101029.63;;;23.25;63.62
53960;BME280;39866;48.638;-2.020;2023-07-31T06:19:51;101019.06;;;23.09;63.75
53960;BME280;39866;48.638;-2.020;2023-07-31T06:22:17;101028.00;;;23.22;63.84
53960;BME280;39866;48.638;-2.020;2023-07-31T06:24:43;101020.84;;;23.21;63.78
53960;BME280;39866;48.638;-2.020;2023-07-31T06:27:08;101035.13;;;23.12;64.16
53960;BME280;39866;48.638;-2.020;2023-07-31T06:29:34;101023.84;;;23.06;64.55
53960;BME280;39866;48.638;-2.020;2023-07-31T06:32:00;101017.19;;;22.98;64.74
53960;BME280;39866;48.638;-2.020;2023-07-31T06:34:25;101020.63;;;22.77;64.96
53960;BME280;39866;48.638;-2.020;2023-07-31T06:36:50;101022.09;;;22.93;65.06
53960;BME280;39866;48.638;-2.020;2023-07-31T06:39:15;101024.00;;;23.04;64.76
53960;BME280;39866;48.638;-2.020;2023-07-31T06:41:42;101037.22;;;23.09;64.72
53960;BME280;39866;48.638;-2.020;2023-07-31T06:44:08;101029.28;;;23.06;64.79
53960;BME280;39866;48.638;-2.020;2023-07-31T06:46:33;101016.97;;;23.13;64.63
53960;BME280;39866;48.638;-2.020;2023-07-31T06:48:58;101025.44;;;22.97;65.08
53960;BME280;39866;48.638;-2.020;2023-07-31T06:51:24;101035.41;;;23.20;64.57
53960;BME280;39866;48.638;-2.020;2023-07-31T06:53:49;101030.47;;;23.26;64.69
53960;BME280;39866;48.638;-2.020;2023-07-31T06:56:14;101033.56;;;23.21;64.57
53960;BME280;39866;48.638;-2.020;2023-07-31T06:58:40;101035.06;;;23.25;64.57
53960;BME280;39866;48.638;-2.020;2023-07-31T07:01:05;101056.38;;;23.18;64.87
53960;BME280;39866;48.638;-2.020;2023-07-31T07:03:30;101038.56;;;23.14;64.87
53960;BME280;39866;48.638;-2.020;2023-07-31T07:05:56;101037.50;;;23.17;65.04
53960;BME280;39866;48.638;-2.020;2023-07-31T07:08:21;101038.00;;;23.22;65.05
53960;BME280;39866;48.638;-2.020;2023-07-31T07:10:47;101043.06;;;23.27;64.57
53960;BME280;39866;48.638;-2.020;2023-07-31T07:13:13;101042.59;;;23.33;64.48
53960;BME280;39866;48.638;-2.020;2023-07-31T07:15:38;101038.63;;;23.26;64.73
53960;BME280;39866;48.638;-2.020;2023-07-31T07:18:04;101034.47;;;23.33;64.39
53960;BME280;39866;48.638;-2.020;2023-07-31T07:20:29;101033.97;;;23.28;64.87
53960;BME280;39866;48.638;-2.020;2023-07-31T07:22:54;101029.03;;;23.33;64.71
53960;BME280;39866;48.638;-2.020;2023-07-31T07:25:20;101043.06;;;23.15;64.93
53960;BME280;39866;48.638;-2.020;2023-07-31T07:27:45;101027.56;;;23.05;65.41
53960;BME280;39866;48.638;-2.020;2023-07-31T07:30:11;101029.47;;;23.15;65.57
53960;BME280;39866;48.638;-2.020;2023-07-31T07:32:36;101033.94;;;22.92;66.35
53960;BME280;39866;48.638;-2.020;2023-07-31T07:35:01;101031.16;;;23.05;65.66
53960;BME280;39866;48.638;-2.020;2023-07-31T07:37:27;101038.31;;;23.06;66.20
53960;BME280;39866;48.638;-2.020;2023-07-31T07:39:52;101027.41;;;22.95;66.52
53960;BME280;39866;48.638;-2.020;2023-07-31T07:42:17;101023.19;;;22.91;67.33
53960;BME280;39866;48.638;-2.020;2023-07-31T07:44:43;101005.13;;;23.03;67.39
53960;BME280;39866;48.638;-2.020;2023-07-31T07:47:08;101013.41;;;22.64;68.58
53960;BME280;39866;48.638;-2.020;2023-07-31T07:49:34;101007.75;;;22.67;68.77
53960;BME280;39866;48.638;-2.020;2023-07-31T07:52:00;101003.41;;;22.65;68.89
53960;BME280;39866;48.638;-2.020;2023-07-31T07:54:25;100995.19;;;22.78;68.58
53960;BME280;39866;48.638;-2.020;2023-07-31T07:56:51;100996.81;;;22.80;68.66
53960;BME280;39866;48.638;-2.020;2023-07-31T07:59:16;100995.56;;;22.73;68.65
53960;BME280;39866;48.638;-2.020;2023-07-31T08:01:42;100997.59;;;22.82;68.59
53960;BME280;39866;48.638;-2.020;2023-07-31T08:04:08;100997.56;;;23.06;67.59
53960;BME280;39866;48.638;-2.020;2023-07-31T08:06:33;100992.69;;;23.22;66.95
53960;BME280;39866;48.638;-2.020;2023-07-31T08:08:59;100986.53;;;23.20;67.15
53960;BME280;39866;48.638;-2.020;2023-07-31T08:11:24;100981.50;;;23.27;66.86
53960;BME280;39866;48.638;-2.020;2023-07-31T08:13:50;100989.38;;;23.19;66.99
53960;BME280;39866;48.638;-2.020;2023-07-31T08:16:15;100980.09;;;23.21;66.59
53960;BME280;39866;48.638;-2.020;2023-07-31T08:18:41;100968.66;;;23.40;66.38
53960;BME280;39866;48.638;-2.020;2023-07-31T08:21:07;100968.16;;;23.35;66.20
53960;BME280;39866;48.638;-2.020;2023-07-31T08:23:33;100956.53;;;23.33;66.09
53960;BME280;39866;48.638;-2.020;2023-07-31T08:25:58;100952.63;;;23.48;65.84
53960;BME280;39866;48.638;-2.020;2023-07-31T08:28:24;100950.03;;;23.58;65.66
53960;BME280;39866;48.638;-2.020;2023-07-31T08:30:49;100950.88;;;23.59;65.71
53960;BME280;39866;48.638;-2.020;2023-07-31T08:33:15;100947.59;;;23.66;65.26
53960;BME280;39866;48.638;-2.020;2023-07-31T08:35:41;100957.19;;;23.59;65.47
53960;BME280;39866;48.638;-2.020;2023-07-31T08:38:06;100953.72;;;23.57;65.22
53960;BME280;39866;48.638;-2.020;2023-07-31T08:40:36;100967.31;;;23.57;65.59
53960;BME280;39866;48.638;-2.020;2023-07-31T08:43:01;100955.09;;;23.52;65.26
53960;BME280;39866;48.638;-2.020;2023-07-31T08:45:28;100960.63;;;23.50;65.32
53960;BME280;39866;48.638;-2.020;2023-07-31T08:47:55;100959.78;;;23.49;65.16
53960;BME280;39866;48.638;-2.020;2023-07-31T08:50:21;100952.00;;;23.56;65.05
53960;BME280;39866;48.638;-2.020;2023-07-31T08:52:48;100956.44;;;23.57;64.98
53960;BME280;39866;48.638;-2.020;2023-07-31T08:55:14;100941.63;;;23.50;65.11
53960;BME280;39866;48.638;-2.020;2023-07-31T08:57:39;100944.88;;;23.66;64.88
53960;BME280;39866;48.638;-2.020;2023-07-31T09:00:07;100941.16;;;23.67;64.68
53960;BME280;39866;48.638;-2.020;2023-07-31T09:05:07;100937.09;;;23.73;64.18
53960;BME280;39866;48.638;-2.020;2023-07-31T09:07:35;100942.78;;;23.70;64.25
53960;BME280;39866;48.638;-2.020;2023-07-31T09:10:01;100928.81;;;23.75;63.88
53960;BME280;39866;48.638;-2.020;2023-07-31T09:12:28;100929.81;;;23.85;63.78
53960;BME280;39866;48.638;-2.020;2023-07-31T09:14:53;100925.31;;;23.84;63.45
53960;BME280;39866;48.638;-2.020;2023-07-31T09:17:35;100911.97;;;23.92;63.27
53960;BME280;39866;48.638;-2.020;2023-07-31T09:20:21;100906.06;;;23.64;65.36
53960;BME280;39866;48.638;-2.020;2023-07-31T09:22:47;100900.72;;;23.63;64.99
53960;BME280;39866;48.638;-2.020;2023-07-31T09:25:25;100906.44;;;23.82;64.02
53960;BME280;39866;48.638;-2.020;2023-07-31T09:27:53;100903.97;;;23.79;64.02
53960;BME280;39866;48.638;-2.020;2023-07-31T09:30:19;100900.13;;;23.93;63.87
53960;BME280;39866;48.638;-2.020;2023-07-31T09:32:46;100900.47;;;24.00;63.54
53960;BME280;39866;48.638;-2.020;2023-07-31T09:35:18;100901.31;;;24.00;63.08
53960;BME280;39866;48.638;-2.020;2023-07-31T09:37:51;100899.06;;;24.16;62.45
53960;BME280;39866;48.638;-2.020;2023-07-31T09:40:31;100903.09;;;24.01;63.05
53960;BME280;39866;48.638;-2.020;2023-07-31T09:42:59;100911.88;;;23.93;63.12
53960;BME280;39866;48.638;-2.020;2023-07-31T09:45:24;100905.66;;;24.03;64.32
53960;BME280;39866;48.638;-2.020;2023-07-31T09:47:50;100899.50;;;23.89;65.04
53960;BME280;39866;48.638;-2.020;2023-07-31T09:50:15;100893.09;;;23.79;65.58
53960;BME280;39866;48.638;-2.020;2023-07-31T09:52:41;100888.03;;;23.86;65.57
53960;BME280;39866;48.638;-2.020;2023-07-31T09:55:07;100886.53;;;23.82;65.15
53960;BME280;39866;48.638;-2.020;2023-07-31T09:57:33;100883.59;;;23.73;65.16
53960;BME280;39866;48.638;-2.020;2023-07-31T09:59:59;100882.06;;;23.92;64.01
53960;BME280;39866;48.638;-2.020;2023-07-31T10:02:26;100880.09;;;23.94;63.79
53960;BME280;39866;48.638;-2.020;2023-07-31T10:04:55;100886.84;;;24.11;63.55
53960;BME280;39866;48.638;-2.020;2023-07-31T10:07:25;100852.03;;;24.05;63.50
53960;BME280;39866;48.638;-2.020;2023-07-31T10:09:53;100856.47;;;24.06;63.23
53960;BME280;39866;48.638;-2.020;2023-07-31T10:12:22;100869.28;;;24.15;63.49
53960;BME280;39866;48.638;-2.020;2023-07-31T10:14:52;100865.47;;;24.17;63.26
53960;BME280;39866;48.638;-2.020;2023-07-31T10:17:19;100871.22;;;24.24;62.82
53960;BME280;39866;48.638;-2.020;2023-07-31T10:19:46;100857.59;;;24.35;62.20
53960;BME280;39866;48.638;-2.020;2023-07-31T10:22:14;100849.44;;;24.35;61.95
53960;BME280;39866;48.638;-2.020;2023-07-31T10:24:39;100842.97;;;24.36;61.65
53960;BME280;39866;48.638;-2.020;2023-07-31T10:27:07;100832.03;;;24.38;61.82
53960;BME280;39866;48.638;-2.020;2023-07-31T10:29:32;100846.09;;;24.32;61.61
53960;BME280;39866;48.638;-2.020;2023-07-31T10:31:59;100842.25;;;24.45;61.66
53960;BME280;39866;48.638;-2.020;2023-07-31T10:34:25;100848.16;;;24.71;60.98
53960;BME280;39866;48.638;-2.020;2023-07-31T10:37:23;100866.59;;;24.47;61.40
53960;BME280;39866;48.638;-2.020;2023-07-31T10:42:35;100831.97;;;24.70;61.03
53960;BME280;39866;48.638;-2.020;2023-07-31T10:45:06;100845.59;;;24.70;60.53
53960;BME280;39866;48.638;-2.020;2023-07-31T10:47:47;100848.50;;;24.78;61.21
53960;BME280;39866;48.638;-2.020;2023-07-31T10:50:20;100854.63;;;24.91;60.27
53960;BME280;39866;48.638;-2.020;2023-07-31T10:52:54;100842.38;;;24.86;60.19
53960;BME280;39866;48.638;-2.020;2023-07-31T10:57:51;100828.75;;;24.86;60.60
53960;BME280;39866;48.638;-2.020;2023-07-31T11:00:28;100863.44;;;24.84;61.08
53960;BME280;39866;48.638;-2.020;2023-07-31T11:06:03;100837.94;;;24.85;60.97
53960;BME280;39866;48.638;-2.020;2023-07-31T11:08:31;100832.56;;;24.74;61.21
53960;BME280;39866;48.638;-2.020;2023-07-31T11:13:28;100834.69;;;24.91;60.95
53960;BME280;39866;48.638;-2.020;2023-07-31T11:15:54;100836.59;;;25.00;61.32
53960;BME280;39866;48.638;-2.020;2023-07-31T11:18:19;100837.06;;;24.84;61.00
53960;BME280;39866;48.638;-2.020;2023-07-31T11:20:45;100839.59;;;24.97;60.76
53960;BME280;39866;48.638;-2.020;2023-07-31T11:23:10;100840.13;;;24.91;60.73
53960;BME280;39866;48.638;-2.020;2023-07-31T11:25:37;100841.66;;;24.84;61.07
53960;BME280;39866;48.638;-2.020;2023-07-31T11:28:08;100830.50;;;24.87;61.03
53960;BME280;39866;48.638;-2.020;2023-07-31T11:30:34;100839.28;;;25.11;60.41
53960;BME280;39866;48.638;-2.020;2023-07-31T11:33:04;100841.03;;;25.01;60.76
53960;BME280;39866;48.638;-2.020;2023-07-31T11:38:11;100832.28;;;24.98;61.51
53960;BME280;39866;48.638;-2.020;2023-07-31T11:40:43;100836.72;;;24.78;62.12
53960;BME280;39866;48.638;-2.020;2023-07-31T11:43:09;100828.56;;;24.99;61.90
53960;BME280;39866;48.638;-2.020;2023-07-31T11:45:36;100823.16;;;25.08;61.74
53960;BME280;39866;48.638;-2.020;2023-07-31T11:48:02;100808.31;;;25.12;61.76
53960;BME280;39866;48.638;-2.020;2023-07-31T11:50:28;100815.81;;;24.99;62.33
53960;BME280;39866;48.638;-2.020;2023-07-31T11:52:57;100808.63;;;24.98;62.27
53960;BME280;39866;48.638;-2.020;2023-07-31T11:55:25;100797.59;;;25.00;61.58
53960;BME280;39866;48.638;-2.020;2023-07-31T11:57:51;100793.47;;;25.05;61.82
53960;BME280;39866;48.638;-2.020;2023-07-31T12:00:18;100762.00;;;25.12;61.84
53960;BME280;39866;48.638;-2.020;2023-07-31T12:02:44;100793.94;;;25.10;62.13
53960;BME280;39866;48.638;-2.020;2023-07-31T12:05:12;100805.38;;;25.35;61.69
53960;BME280;39866;48.638;-2.020;2023-07-31T12:07:48;100790.19;;;25.42;61.40
53960;BME280;39866;48.638;-2.020;2023-07-31T12:13:22;100782.88;;;25.33;61.75
53960;BME280;39866;48.638;-2.020;2023-07-31T12:15:48;100783.47;;;25.46;61.31
53960;BME280;39866;48.638;-2.020;2023-07-31T12:18:21;100767.69;;;25.40;61.61
53960;BME280;39866;48.638;-2.020;2023-07-31T12:20:49;100777.16;;;25.45;61.67
53960;BME280;39866;48.638;-2.020;2023-07-31T12:23:20;100763.34;;;25.28;62.32
53960;BME280;39866;48.638;-2.020;2023-07-31T12:26:10;100745.59;;;25.43;61.73
53960;BME280;39866;48.638;-2.020;2023-07-31T12:28:42;100750.59;;;25.38;61.52
53960;BME280;39866;48.638;-2.020;2023-07-31T12:31:16;100751.72;;;25.26;61.94
53960;BME280;39866;48.638;-2.020;2023-07-31T12:33:46;100741.56;;;25.37;62.18
53960;BME280;39866;48.638;-2.020;2023-07-31T12:36:14;100752.63;;;25.45;62.09
53960;BME280;39866;48.638;-2.020;2023-07-31T12:38:41;100750.31;;;25.31;62.81
53960;BME280;39866;48.638;-2.020;2023-07-31T12:41:07;100746.44;;;25.34;62.68
53960;BME280;39866;48.638;-2.020;2023-07-31T12:43:33;100756.47;;;25.24;62.53
53960;BME280;39866;48.638;-2.020;2023-07-31T12:45:59;100752.34;;;25.08;63.16
53960;BME280;39866;48.638;-2.020;2023-07-31T12:48:24;100742.41;;;24.98;63.70
53960;BME280;39866;48.638;-2.020;2023-07-31T12:50:49;100743.06;;;24.90;64.54
53960;BME280;39866;48.638;-2.020;2023-07-31T12:53:15;100724.06;;;25.00;64.93
53960;BME280;39866;48.638;-2.020;2023-07-31T12:55:41;100730.19;;;24.92;64.64
53960;BME280;39866;48.638;-2.020;2023-07-31T12:58:06;100733.03;;;25.11;64.50
53960;BME280;39866;48.638;-2.020;2023-07-31T13:00:32;100742.19;;;25.10;64.39